Bevent, Wisconsin
Current Conditions -  °F | °C
As of 7:45 AM on Thursday 18 Dec 2014 (Local Time) from KCWA Reporting Station
Overcast Overcast  
Wind Chill: 17°   Ceiling: 1100
Heat Index: 23°   Visibility: 10mi
Dew Point: 21°   Wind: 5mph
Humidity: 93%   Direction: 40°NE
Pressure: 30.25"   Gusts: NA
Location:  44.8205°N, 89.392°W
Report Text: KCWA 181345Z 04004KT 10SM OVC011 M05/M06 A3025
Loading
Personal Weather Stations






























Interactive Weather Map New forecast layout! Learn more

10-Day Weather Forecast

Advertisements
Track Severe Weather on mobile